createdAt,value
2023-04-05T00:08:34.715Z,3.22
2023-04-05T00:18:39.843Z,3.15
2023-04-05T00:28:42.452Z,3.45
2023-04-05T00:38:48.295Z,3.17
2023-04-05T00:48:51.075Z,3.42
2023-04-05T00:58:55.680Z,3.80
2023-04-05T01:09:05.660Z,4.35
2023-04-05T01:19:09.995Z,3.20
2023-04-05T01:30:04.057Z,2.58
2023-04-05T01:40:09.734Z,2.88
2023-04-05T01:50:12.428Z,2.72
2023-04-05T02:00:17.264Z,2.78
2023-04-05T02:10:20.976Z,3.28
2023-04-05T02:20:25.816Z,2.85
2023-04-05T02:30:29.138Z,3.72
2023-04-05T02:40:33.697Z,4.20
2023-04-05T02:50:36.456Z,4.05
2023-04-05T03:00:40.732Z,3.60
2023-04-05T03:10:45.020Z,3.78
2023-04-05T03:20:49.901Z,4.00
2023-04-05T03:30:52.930Z,3.28
2023-04-05T03:40:56.928Z,3.55
2023-04-05T03:50:59.589Z,3.15
2023-04-05T04:01:03.883Z,3.30
2023-04-05T04:11:07.220Z,3.63
2023-04-05T04:21:11.588Z,3.20
2023-04-05T04:31:14.411Z,2.97
2023-04-05T04:41:20.066Z,2.95
2023-04-05T04:51:22.832Z,3.45
2023-04-05T05:01:26.966Z,3.75
2023-04-05T05:11:29.842Z,3.60
2023-04-05T05:21:33.793Z,3.42
2023-04-05T05:31:36.504Z,3.17
2023-04-05T05:41:40.571Z,3.58
2023-04-05T05:51:43.237Z,4.40
2023-04-05T06:01:47.446Z,3.72
2023-04-05T06:11:56.330Z,4.72
2023-04-05T06:22:01.310Z,5.28
2023-04-05T06:32:04.136Z,6.15
2023-04-05T06:42:08.412Z,5.28
2023-04-05T06:52:11.145Z,4.65
2023-04-05T07:02:15.454Z,4.22
2023-04-05T07:12:18.167Z,4.07
2023-04-05T07:22:22.160Z,4.53
2023-04-05T07:32:24.938Z,3.45
2023-04-05T07:42:28.960Z,3.92
2023-04-05T07:52:31.567Z,3.47
2023-04-05T08:02:35.624Z,3.10
2023-04-05T08:12:38.998Z,2.97
2023-04-05T08:22:43.168Z,2.83
2023-04-05T08:32:45.815Z,2.90
2023-04-05T08:42:58.181Z,3.10
2023-04-05T08:53:00.966Z,2.95
2023-04-05T09:03:06.021Z,2.80
2023-04-05T09:13:12.478Z,2.50
2023-04-05T09:23:16.529Z,2.30
2023-04-05T09:33:20.972Z,2.00
2023-04-05T09:43:43.176Z,2.10
2023-04-05T09:53:59.329Z,2.17
2023-04-05T10:04:03.754Z,2.17
2023-04-05T10:14:08.146Z,1.88
2023-04-05T10:24:22.574Z,2.55
2023-04-05T10:34:32.270Z,1.73
2023-04-05T10:44:38.421Z,1.98
2023-04-05T10:54:41.797Z,1.70
2023-04-05T11:04:45.906Z,2.00
2023-04-05T11:14:48.631Z,1.80
2023-04-05T11:24:55.039Z,1.90
2023-04-05T11:35:02.111Z,2.03
2023-04-05T11:45:07.137Z,2.08
2023-04-05T11:55:11.670Z,1.83
2023-04-05T12:05:16.181Z,1.70
2023-04-05T12:15:19.281Z,2.00
2023-04-05T12:25:25.072Z,1.70
2023-04-05T12:35:32.685Z,2.00
2023-04-05T12:45:41.820Z,1.88
2023-04-05T12:55:49.892Z,2.00
2023-04-05T13:05:54.116Z,2.30
2023-04-05T13:15:56.876Z,2.33
2023-04-05T13:26:01.353Z,2.10
2023-04-05T13:36:04.196Z,2.05
2023-04-05T13:46:08.508Z,2.13
2023-04-05T13:56:11.158Z,2.00
2023-04-05T14:06:15.121Z,2.47
2023-04-05T14:16:17.996Z,2.50
2023-04-05T14:26:22.294Z,2.28
2023-04-05T14:36:26.314Z,2.30
2023-04-05T14:46:30.520Z,2.47
2023-04-05T14:56:33.351Z,2.22
2023-04-05T15:06:37.606Z,2.58
2023-04-05T15:16:40.340Z,2.30
2023-04-05T15:26:44.416Z,2.03
2023-04-05T15:36:47.093Z,2.30
2023-04-05T15:46:51.349Z,2.28
2023-04-05T15:56:54.231Z,2.50
2023-04-05T16:06:58.347Z,2.67
2023-04-05T16:17:03.992Z,2.47
2023-04-05T16:27:08.052Z,3.15
2023-04-05T16:37:10.766Z,2.95
2023-04-05T16:47:14.847Z,2.75
2023-04-05T16:57:17.513Z,2.40
2023-04-05T17:07:21.606Z,3.00
2023-04-05T17:17:24.291Z,2.38
2023-04-05T17:27:28.499Z,2.13
2023-04-05T17:37:31.158Z,2.58
2023-04-05T17:47:35.784Z,4.07
2023-04-05T17:57:38.615Z,2.60
2023-04-05T18:07:43.290Z,4.63
2023-04-05T18:17:46.158Z,4.40
2023-04-05T18:27:50.173Z,3.70
2023-04-05T18:37:52.849Z,3.65
2023-04-05T18:47:57.110Z,4.63
2023-04-05T18:57:59.937Z,4.60
2023-04-05T19:08:04.034Z,7.03
2023-04-05T19:18:06.902Z,5.30
2023-04-05T19:28:11.163Z,5.53
2023-04-05T19:38:13.903Z,4.60
2023-04-05T19:48:36.932Z,4.30
2023-04-05T19:58:39.901Z,4.43
2023-04-05T20:08:45.730Z,4.00
2023-04-05T20:18:49.458Z,3.88
2023-04-05T20:28:54.785Z,6.07
2023-04-05T20:38:57.565Z,5.30
2023-04-05T20:49:01.789Z,5.05
2023-04-05T20:59:04.562Z,5.05
2023-04-05T21:09:08.931Z,4.57
2023-04-05T21:19:11.948Z,4.70
2023-04-05T21:29:16.415Z,5.28
2023-04-05T21:39:19.238Z,4.97
2023-04-05T21:49:25.536Z,5.22
2023-04-05T21:59:28.358Z,4.90
2023-04-05T22:09:32.663Z,5.07
2023-04-05T22:19:35.607Z,5.22
2023-04-05T22:29:40.389Z,4.80
2023-04-05T22:39:43.149Z,4.50
2023-04-05T22:49:47.328Z,4.72
2023-04-05T22:59:50.063Z,4.80
2023-04-05T23:09:54.336Z,5.30
2023-04-05T23:19:57.070Z,5.07
2023-04-05T23:30:01.732Z,5.28
2023-04-05T23:40:04.905Z,4.93
2023-04-05T23:50:11.200Z,5.28
